createdAt,value
2023-04-04T00:01:55.288Z,57.39
2023-04-04T00:05:57.299Z,57.81
2023-04-04T00:09:59.442Z,57.63
2023-04-04T00:14:02.531Z,57.50
2023-04-04T00:18:04.706Z,57.32
2023-04-04T00:22:07.361Z,57.00
2023-04-04T00:26:09.351Z,57.55
2023-04-04T00:30:12.412Z,57.84
2023-04-04T00:34:14.435Z,57.83
2023-04-04T00:38:16.614Z,57.75
2023-04-04T00:42:18.807Z,57.70
2023-04-04T00:46:21.785Z,57.64
2023-04-04T00:50:23.960Z,57.84
2023-04-04T00:54:26.222Z,57.76
2023-04-04T00:58:30.085Z,57.94
2023-04-04T01:02:32.418Z,58.26
2023-04-04T01:06:35.092Z,58.63
2023-04-04T01:10:37.713Z,58.42
2023-04-04T01:14:43.096Z,58.19
2023-04-04T01:18:46.571Z,58.42
2023-04-04T01:22:50.962Z,58.89
2023-04-04T01:26:54.613Z,58.40
2023-04-04T01:31:00.943Z,58.16
2023-04-04T01:35:23.690Z,59.01
2023-04-04T01:39:52.990Z,59.02
2023-04-04T01:43:56.150Z,58.94
2023-04-04T01:47:59.494Z,58.91
2023-04-04T01:52:02.348Z,59.12
2023-04-04T01:56:04.842Z,59.92
2023-04-04T02:00:09.878Z,59.91
2023-04-04T02:04:20.657Z,59.91
2023-04-04T02:08:22.806Z,59.60
2023-04-04T02:12:29.897Z,59.41
2023-04-04T02:16:32.080Z,59.57
2023-04-04T02:20:34.592Z,59.40
2023-04-04T02:24:36.846Z,59.89
2023-04-04T02:28:39.015Z,60.04
2023-04-04T02:32:41.342Z,60.19
2023-04-04T02:36:43.601Z,60.24
2023-04-04T02:40:46.546Z,60.14
2023-04-04T02:44:48.981Z,60.84
2023-04-04T02:48:53.015Z,60.80
2023-04-04T02:53:02.651Z,61.08
2023-04-04T02:57:08.180Z,61.34
2023-04-04T03:01:10.622Z,60.92
2023-04-04T03:05:13.838Z,61.13
2023-04-04T03:09:15.998Z,61.52
2023-04-04T03:13:18.151Z,61.27
2023-04-04T03:17:21.514Z,61.44
2023-04-04T03:21:23.675Z,61.62
2023-04-04T03:25:25.960Z,61.89
2023-04-04T03:29:28.144Z,61.83
2023-04-04T03:33:33.102Z,62.13
2023-04-04T03:37:35.488Z,62.34
2023-04-04T03:41:37.495Z,62.95
2023-04-04T03:45:39.680Z,62.87
2023-04-04T03:49:43.040Z,63.25
2023-04-04T03:53:45.401Z,63.85
2023-04-04T03:57:47.876Z,63.79
2023-04-04T04:01:52.200Z,64.34
2023-04-04T04:05:55.343Z,64.53
2023-04-04T04:09:57.663Z,65.55
2023-04-04T04:14:00.759Z,65.37
2023-04-04T04:18:03.343Z,66.14
2023-04-04T04:22:06.193Z,66.63
2023-04-04T04:26:08.537Z,67.08
2023-04-04T04:30:10.815Z,67.54
2023-04-04T04:34:16.575Z,67.69
2023-04-04T04:38:19.200Z,68.26
2023-04-04T04:42:22.600Z,68.54
2023-04-04T04:46:30.200Z,67.96
2023-04-04T04:50:33.467Z,68.41
2023-04-04T04:54:35.649Z,68.97
2023-04-04T04:58:38.657Z,69.16
2023-04-04T05:02:44.391Z,69.12
2023-04-04T05:06:49.189Z,70.92
2023-04-04T05:10:52.772Z,72.51
2023-04-04T05:14:55.660Z,72.18
2023-04-04T05:18:58.208Z,71.54
2023-04-04T05:23:00.303Z,70.50
2023-04-04T05:27:09.719Z,70.24
2023-04-04T05:31:18.599Z,71.03
2023-04-04T05:35:21.213Z,72.45
2023-04-04T05:39:23.890Z,73.57
2023-04-04T05:43:39.443Z,73.44
2023-04-04T05:47:46.762Z,72.23
2023-04-04T05:51:50.346Z,71.99
2023-04-04T05:55:53.379Z,71.53
2023-04-04T05:59:57.995Z,70.84
2023-04-04T06:04:00.780Z,70.36
2023-04-04T06:08:03.271Z,69.59
2023-04-04T06:12:05.508Z,68.78
2023-04-04T06:16:08.214Z,68.17
2023-04-04T06:20:10.886Z,67.64
2023-04-04T06:24:13.113Z,66.24
2023-04-04T06:28:16.850Z,65.67
2023-04-04T06:32:22.286Z,61.84
2023-04-04T06:36:24.825Z,53.00
2023-04-04T06:40:27.702Z,47.12
2023-04-04T06:44:30.520Z,42.62
2023-04-04T06:48:32.590Z,41.38
2023-04-04T06:52:34.873Z,41.04
2023-04-04T06:56:38.779Z,42.51
2023-04-04T07:00:41.360Z,41.44
2023-04-04T07:04:43.744Z,43.90
2023-04-04T07:08:46.007Z,46.50
2023-04-04T07:12:48.192Z,46.75
2023-04-04T07:16:50.443Z,47.97
2023-04-04T07:20:52.479Z,46.92
2023-04-04T07:24:54.612Z,47.54
2023-04-04T07:28:57.100Z,47.82
2023-04-04T07:33:00.376Z,47.87
2023-04-04T07:37:02.825Z,47.94
2023-04-04T07:41:04.833Z,48.21
2023-04-04T07:45:07.442Z,47.34
2023-04-04T07:49:09.530Z,47.61
2023-04-04T07:53:11.635Z,48.34
2023-04-04T07:57:14.392Z,47.37
2023-04-04T08:01:16.554Z,47.57
2023-04-04T08:05:18.830Z,48.34
2023-04-04T08:09:20.826Z,47.60
2023-04-04T08:13:23.197Z,47.44
2023-04-04T08:17:25.580Z,47.19
2023-04-04T08:21:27.755Z,47.24
2023-04-04T08:25:30.426Z,48.40
2023-04-04T08:29:33.132Z,47.51
2023-04-04T08:33:46.754Z,47.71
2023-04-04T08:37:49.956Z,47.51
2023-04-04T08:42:01.548Z,46.15
2023-04-04T08:46:05.681Z,45.77
2023-04-04T08:50:08.151Z,46.96
2023-04-04T08:54:11.167Z,46.70
2023-04-04T08:58:13.191Z,46.90
2023-04-04T09:02:23.533Z,46.97
2023-04-04T09:06:26.568Z,46.11
2023-04-04T09:10:29.730Z,46.45
2023-04-04T09:14:33.566Z,44.89
2023-04-04T09:18:35.629Z,44.32
2023-04-04T09:22:44.614Z,44.19
2023-04-04T09:26:48.841Z,45.00
2023-04-04T09:30:52.027Z,45.76
2023-04-04T09:34:54.847Z,44.45
2023-04-04T09:38:57.148Z,45.29
2023-04-04T09:43:03.657Z,45.64
2023-04-04T09:51:36.045Z,44.64
2023-04-04T09:55:38.364Z,43.90
2023-04-04T09:59:41.185Z,44.27
2023-04-04T10:03:43.542Z,44.77
2023-04-04T10:07:47.246Z,44.18
2023-04-04T10:11:49.400Z,44.66
2023-04-04T10:15:56.355Z,44.03
2023-04-04T10:20:03.862Z,42.77
2023-04-04T10:24:09.782Z,42.47
2023-04-04T10:28:12.493Z,41.97
2023-04-04T10:32:26.975Z,43.33
2023-04-04T10:36:34.587Z,42.63
2023-04-04T10:40:40.015Z,42.35
2023-04-04T10:44:44.847Z,42.50
2023-04-04T10:48:47.834Z,41.84
2023-04-04T10:52:50.857Z,42.44
2023-04-04T10:56:55.100Z,42.47
2023-04-04T11:00:57.753Z,42.09
2023-04-04T11:05:30.441Z,41.76
2023-04-04T11:09:48.329Z,42.20
2023-04-04T11:14:00.483Z,42.96
2023-04-04T11:18:17.245Z,42.08
2023-04-04T11:22:23.734Z,41.42
2023-04-04T11:26:26.216Z,41.05
2023-04-04T11:30:28.454Z,40.05
2023-04-04T11:34:32.271Z,40.73
2023-04-04T11:38:35.298Z,40.81
2023-04-04T11:42:39.627Z,41.39
2023-04-04T11:46:42.230Z,41.20
2023-04-04T11:50:49.454Z,41.30
2023-04-04T11:54:51.650Z,41.61
2023-04-04T11:59:01.508Z,41.36
2023-04-04T12:03:11.312Z,42.42
2023-04-04T12:07:17.626Z,41.65
2023-04-04T12:11:21.534Z,42.67
2023-04-04T12:15:23.528Z,42.62
2023-04-04T12:19:27.663Z,43.01
2023-04-04T12:23:34.686Z,43.08
2023-04-04T12:27:36.903Z,44.07
2023-04-04T12:31:41.321Z,43.44
2023-04-04T12:35:51.878Z,43.23
2023-04-04T12:39:54.691Z,42.64
2023-04-04T12:44:05.063Z,42.87
2023-04-04T12:48:13.645Z,42.70
2023-04-04T12:52:21.609Z,44.02
2023-04-04T12:56:27.530Z,43.49
2023-04-04T13:00:30.808Z,43.07
2023-04-04T13:04:33.559Z,43.43
2023-04-04T13:08:35.725Z,43.73
2023-04-04T13:13:01.459Z,43.37
2023-04-04T13:17:06.288Z,42.48
2023-04-04T13:21:10.009Z,43.25
2023-04-04T13:25:12.589Z,41.91
2023-04-04T13:29:14.703Z,42.18
2023-04-04T13:33:17.562Z,42.12
2023-04-04T13:37:20.732Z,42.18
2023-04-04T13:41:22.887Z,41.71
2023-04-04T13:45:25.352Z,41.88
2023-04-04T13:49:27.401Z,42.90
2023-04-04T13:53:29.413Z,42.60
2023-04-04T13:57:31.580Z,41.48
2023-04-04T14:01:33.768Z,41.68
2023-04-04T14:05:35.953Z,41.27
2023-04-04T14:09:38.172Z,42.55
2023-04-04T14:13:40.439Z,42.27
2023-04-04T14:17:43.090Z,41.25
2023-04-04T14:21:45.276Z,41.57
2023-04-04T14:25:47.288Z,41.50
2023-04-04T14:29:49.362Z,41.32
2023-04-04T14:33:51.420Z,41.31
2023-04-04T14:37:54.584Z,41.57
2023-04-04T14:41:57.417Z,42.05
2023-04-04T14:45:59.504Z,41.87
2023-04-04T14:50:01.723Z,42.09
2023-04-04T14:54:04.009Z,42.88
2023-04-04T14:58:06.945Z,41.79
2023-04-04T15:02:08.928Z,40.95
2023-04-04T15:06:10.989Z,40.78
2023-04-04T15:10:13.452Z,40.91
2023-04-04T15:14:15.652Z,42.43
2023-04-04T15:18:17.817Z,42.18
2023-04-04T15:22:20.839Z,41.97
2023-04-04T15:26:23.485Z,41.99
2023-04-04T15:30:25.887Z,41.62
2023-04-04T15:34:27.902Z,41.35
2023-04-04T15:38:30.051Z,40.82
2023-04-04T15:42:32.152Z,40.87
2023-04-04T15:46:34.312Z,40.48
2023-04-04T15:50:36.330Z,40.75
2023-04-04T15:54:38.336Z,41.65
2023-04-04T15:58:40.385Z,41.21
2023-04-04T16:02:42.827Z,41.76
2023-04-04T16:06:44.983Z,42.00
2023-04-04T16:10:47.107Z,40.52
2023-04-04T16:14:49.155Z,41.52
2023-04-04T16:18:51.278Z,41.48
2023-04-04T16:22:54.792Z,41.04
2023-04-04T16:26:57.942Z,40.72
2023-04-04T16:31:00.241Z,41.57
2023-04-04T16:35:02.427Z,41.25
2023-04-04T16:39:04.588Z,40.97
2023-04-04T16:43:06.802Z,41.25
2023-04-04T16:47:10.389Z,42.46
2023-04-04T16:51:13.399Z,43.17
2023-04-04T16:55:15.501Z,43.54
2023-04-04T16:59:17.698Z,43.72
2023-04-04T17:03:19.883Z,42.96
2023-04-04T17:07:22.021Z,43.59
2023-04-04T17:11:24.140Z,44.16
2023-04-04T17:15:26.205Z,43.24
2023-04-04T17:19:30.314Z,44.15
2023-04-04T17:23:32.424Z,44.27
2023-04-04T17:27:34.463Z,44.52
2023-04-04T17:31:38.418Z,44.23
2023-04-04T17:35:40.600Z,45.19
2023-04-04T17:39:44.180Z,44.95
2023-04-04T17:43:47.407Z,45.42
2023-04-04T17:47:49.491Z,45.52
2023-04-04T17:51:52.157Z,45.84
2023-04-04T17:55:54.260Z,45.69
2023-04-04T17:59:56.573Z,45.67
2023-04-04T18:03:58.791Z,46.09
2023-04-04T18:08:04.771Z,46.06
2023-04-04T18:12:07.191Z,46.27
2023-04-04T18:16:09.775Z,46.36
2023-04-04T18:20:16.292Z,46.55
2023-04-04T18:24:21.147Z,46.40
2023-04-04T18:28:23.776Z,46.61
2023-04-04T18:32:28.356Z,47.02
2023-04-04T18:36:30.862Z,47.52
2023-04-04T18:40:32.902Z,47.90
2023-04-04T18:44:34.955Z,48.13
2023-04-04T18:48:37.049Z,48.39
2023-04-04T18:52:39.157Z,48.78
2023-04-04T18:56:41.257Z,49.01
2023-04-04T19:00:43.713Z,49.08
2023-04-04T19:04:46.611Z,49.28
2023-04-04T19:08:48.798Z,49.43
2023-04-04T19:12:50.889Z,49.54
2023-04-04T19:16:53.009Z,49.33
2023-04-04T19:20:55.169Z,49.62
2023-04-04T19:24:57.272Z,49.81
2023-04-04T19:28:59.274Z,50.26
2023-04-04T19:33:03.257Z,50.05
2023-04-04T19:37:06.453Z,50.09
2023-04-04T19:41:12.746Z,49.98
2023-04-04T19:45:15.049Z,50.51
2023-04-04T19:49:17.780Z,50.91
2023-04-04T19:53:21.730Z,51.53
2023-04-04T19:57:23.867Z,51.83
2023-04-04T20:01:28.052Z,52.76
2023-04-04T20:05:32.107Z,53.39
2023-04-04T20:09:38.341Z,54.41
2023-04-04T20:13:41.112Z,55.42
2023-04-04T20:17:43.131Z,56.15
2023-04-04T20:21:45.405Z,56.08
2023-04-04T20:25:47.452Z,56.43
2023-04-04T20:29:52.958Z,57.11
2023-04-04T20:33:55.157Z,57.25
2023-04-04T20:37:57.204Z,57.43
2023-04-04T20:41:59.228Z,57.44
2023-04-04T20:46:01.338Z,58.05
2023-04-04T20:50:20.356Z,58.57
2023-04-04T20:54:22.714Z,58.83
2023-04-04T20:58:30.061Z,58.73
2023-04-04T21:02:34.172Z,58.60
2023-04-04T21:06:36.612Z,58.75
2023-04-04T21:10:51.937Z,59.12
2023-04-04T21:14:54.537Z,59.70
2023-04-04T21:19:01.446Z,60.06
2023-04-04T21:23:06.661Z,60.17
2023-04-04T21:27:08.657Z,60.36
2023-04-04T21:31:13.788Z,60.68
2023-04-04T21:35:47.202Z,61.29
2023-04-04T21:39:57.027Z,61.60
2023-04-04T21:44:01.455Z,61.58
2023-04-04T21:48:03.632Z,61.43
2023-04-04T21:52:06.087Z,61.80
2023-04-04T21:56:08.139Z,61.92
2023-04-04T22:00:10.992Z,62.49
2023-04-04T22:04:13.102Z,62.48
2023-04-04T22:08:15.100Z,63.31
2023-04-04T22:12:19.263Z,63.81
2023-04-04T22:16:21.385Z,64.03
2023-04-04T22:20:23.431Z,63.69
2023-04-04T22:24:25.750Z,63.42
2023-04-04T22:28:27.897Z,64.30
2023-04-04T22:32:33.211Z,64.85
2023-04-04T22:36:35.541Z,65.06
2023-04-04T22:40:37.649Z,65.07
2023-04-04T22:44:39.658Z,66.43
2023-04-04T22:48:41.657Z,66.26
2023-04-04T22:52:43.884Z,66.30
2023-04-04T22:56:46.060Z,66.93
2023-04-04T23:00:48.498Z,67.22
2023-04-04T23:04:50.811Z,67.02
2023-04-04T23:08:52.837Z,67.90
2023-04-04T23:12:54.890Z,68.77
2023-04-04T23:16:57.301Z,68.68
2023-04-04T23:20:59.306Z,69.10
2023-04-04T23:25:01.320Z,69.51
2023-04-04T23:29:03.636Z,69.20
2023-04-04T23:33:05.755Z,68.55
2023-04-04T23:37:07.814Z,69.51
2023-04-04T23:41:11.103Z,70.57
2023-04-04T23:45:13.149Z,70.62
2023-04-04T23:49:15.539Z,71.74
2023-04-04T23:53:17.611Z,72.17
2023-04-04T23:57:19.646Z,72.26
